createdAt,value
2022-09-23T00:01:33.329Z,86.90
2022-09-23T00:04:11.599Z,86.80
2022-09-23T00:07:03.114Z,87.00
2022-09-23T00:09:35.198Z,87.00
2022-09-23T00:12:06.885Z,86.90
2022-09-23T00:14:40.552Z,86.80
2022-09-23T00:17:11.810Z,87.10
2022-09-23T00:19:40.972Z,87.10
2022-09-23T00:22:13.877Z,87.20
2022-09-23T00:24:50.467Z,87.10
2022-09-23T00:27:21.382Z,87.20
2022-09-23T00:29:49.001Z,87.20
2022-09-23T00:32:18.654Z,87.60
2022-09-23T00:34:48.348Z,87.70
2022-09-23T00:37:24.648Z,87.60
2022-09-23T00:40:00.635Z,87.60
2022-09-23T00:42:31.153Z,87.90
2022-09-23T00:45:08.141Z,88.00
2022-09-23T00:50:54.934Z,87.90
2022-09-23T00:53:27.073Z,87.90
2022-09-23T00:56:03.359Z,87.80
2022-09-23T00:58:38.529Z,88.20
2022-09-23T01:01:08.670Z,88.00
2022-09-23T01:03:36.663Z,88.00
2022-09-23T01:06:04.025Z,88.00
2022-09-23T01:08:32.103Z,87.90
2022-09-23T01:11:41.705Z,88.10
2022-09-23T01:14:44.171Z,88.00
2022-09-23T01:20:45.162Z,88.10
2022-09-23T01:23:29.139Z,88.30
2022-09-23T01:26:28.120Z,88.40
2022-09-23T01:29:20.554Z,88.50
2022-09-23T01:31:55.559Z,88.50
2022-09-23T01:34:34.589Z,88.40
2022-09-23T01:37:48.727Z,88.50
2022-09-23T01:40:29.015Z,88.40
2022-09-23T01:43:18.957Z,88.30
2022-09-23T01:45:54.790Z,88.20
2022-09-23T01:48:30.996Z,88.20
2022-09-23T01:51:24.329Z,88.10
2022-09-23T01:54:20.264Z,87.90
2022-09-23T01:56:58.056Z,87.70
2022-09-23T01:59:48.245Z,87.50
2022-09-23T02:02:38.719Z,87.50
2022-09-23T02:05:27.483Z,87.40
2022-09-23T02:08:07.540Z,87.40
2022-09-23T02:10:47.840Z,87.30
2022-09-23T02:13:30.730Z,87.40
2022-09-23T02:16:03.717Z,87.40
2022-09-23T02:18:43.988Z,87.30
2022-09-23T02:21:12.076Z,87.20
2022-09-23T02:24:10.364Z,87.20
2022-09-23T02:26:54.712Z,87.10
2022-09-23T02:30:02.268Z,87.10
2022-09-23T02:32:57.561Z,86.90
2022-09-23T02:35:42.746Z,87.00
2022-09-23T02:38:31.779Z,86.90
2022-09-23T02:41:11.645Z,86.90
2022-09-23T02:44:06.403Z,86.90
2022-09-23T02:46:34.904Z,86.80
2022-09-23T02:49:17.880Z,86.80
2022-09-23T02:51:48.572Z,86.80
2022-09-23T02:54:31.297Z,86.60
2022-09-23T02:57:04.975Z,86.60
2022-09-23T02:59:36.256Z,86.60
2022-09-23T03:02:17.779Z,86.60
2022-09-23T03:05:00.063Z,86.50
2022-09-23T03:07:46.256Z,86.50
2022-09-23T03:10:19.672Z,86.40
2022-09-23T03:13:09.455Z,86.40
2022-09-23T03:15:57.423Z,86.30
2022-09-23T03:19:04.400Z,86.30
2022-09-23T03:21:44.715Z,86.20
2022-09-23T03:24:16.411Z,86.20
2022-09-23T03:26:47.653Z,86.20
2022-09-23T03:29:16.922Z,86.10
2022-09-23T03:31:45.168Z,86.00
2022-09-23T03:34:34.624Z,86.00
2022-09-23T03:37:21.769Z,86.10
2022-09-23T03:40:00.848Z,86.10
2022-09-23T03:42:31.242Z,85.90
2022-09-23T03:45:01.423Z,86.00
2022-09-23T03:47:31.481Z,86.00
2022-09-23T03:49:59.935Z,86.00
2022-09-23T03:52:31.362Z,86.00
2022-09-23T03:55:08.273Z,86.00
2022-09-23T03:57:40.388Z,86.00
2022-09-23T04:00:09.034Z,86.00
2022-09-23T04:02:37.312Z,85.90
2022-09-23T04:05:10.801Z,85.90
2022-09-23T04:07:38.843Z,86.00
2022-09-23T04:10:07.374Z,85.90
2022-09-23T04:12:43.844Z,85.90
2022-09-23T04:15:11.398Z,85.90
2022-09-23T04:17:38.578Z,85.90
2022-09-23T04:20:09.485Z,85.90
2022-09-23T04:22:42.719Z,85.80
2022-09-23T04:25:10.937Z,85.90
2022-09-23T04:27:39.392Z,85.70
2022-09-23T04:30:07.568Z,85.60
2022-09-23T04:32:59.661Z,85.70
2022-09-23T04:35:39.927Z,85.50
2022-09-23T04:38:17.429Z,85.60
2022-09-23T04:40:44.807Z,85.50
2022-09-23T04:43:18.931Z,85.50
2022-09-23T04:45:46.653Z,85.40
2022-09-23T04:48:26.154Z,85.20
2022-09-23T04:51:15.441Z,85.20
2022-09-23T04:53:54.787Z,85.00
2022-09-23T04:56:27.775Z,84.80
2022-09-23T04:58:58.358Z,84.70
2022-09-23T05:01:28.562Z,84.80
2022-09-23T05:04:05.447Z,84.50
2022-09-23T05:06:35.836Z,84.20
2022-09-23T05:09:09.598Z,84.00
2022-09-23T05:11:37.937Z,83.90
2022-09-23T05:14:05.528Z,83.80
2022-09-23T05:16:41.776Z,83.60
2022-09-23T05:19:22.966Z,83.70
2022-09-23T05:21:55.925Z,83.60
2022-09-23T05:24:32.240Z,83.50
2022-09-23T05:27:29.373Z,83.40
2022-09-23T05:30:00.381Z,83.30
2022-09-23T05:32:28.410Z,83.30
2022-09-23T05:34:57.317Z,83.20
2022-09-23T05:37:35.061Z,82.90
2022-09-23T05:40:07.345Z,82.80
2022-09-23T05:42:38.433Z,81.90
2022-09-23T05:45:07.759Z,81.20
2022-09-23T05:47:40.211Z,81.00
2022-09-23T05:50:11.187Z,80.80
2022-09-23T05:52:38.968Z,80.60
2022-09-23T05:55:16.067Z,80.20
2022-09-23T05:57:49.948Z,80.00
2022-09-23T06:00:25.420Z,79.80
2022-09-23T06:03:12.365Z,79.70
2022-09-23T06:05:45.368Z,79.90
2022-09-23T06:08:13.435Z,79.70
2022-09-23T06:10:43.210Z,79.30
2022-09-23T06:13:15.117Z,79.30
2022-09-23T06:15:44.882Z,78.80
2022-09-23T06:18:14.282Z,78.60
2022-09-23T06:20:44.464Z,78.20
2022-09-23T06:23:12.815Z,78.20
2022-09-23T06:25:42.410Z,77.80
2022-09-23T06:28:20.286Z,77.70
2022-09-23T06:31:14.655Z,77.50
2022-09-23T06:33:46.668Z,77.40
2022-09-23T06:36:41.545Z,76.60
2022-09-23T06:39:35.949Z,76.30
2022-09-23T06:42:52.368Z,75.30
2022-09-23T06:45:35.943Z,74.50
2022-09-23T06:48:05.149Z,73.90
2022-09-23T06:50:35.126Z,72.60
2022-09-23T06:53:10.926Z,71.50
2022-09-23T06:55:44.720Z,70.20
2022-09-23T07:00:58.002Z,69.70
2022-09-23T07:03:29.636Z,69.60
2022-09-23T07:06:03.557Z,68.80
2022-09-23T07:08:37.386Z,66.60
2022-09-23T07:11:26.125Z,63.80
2022-09-23T07:14:07.983Z,59.80
2022-09-23T07:19:42.126Z,49.60
2022-09-23T07:22:28.417Z,45.50
2022-09-23T07:24:56.857Z,44.20
2022-09-23T07:27:27.822Z,43.20
2022-09-23T07:29:55.321Z,42.50
2022-09-23T07:32:23.750Z,41.80
2022-09-23T07:34:55.688Z,41.60
2022-09-23T07:37:25.150Z,41.00
2022-09-23T07:40:00.717Z,39.90
2022-09-23T07:42:28.477Z,38.00
2022-09-23T07:45:07.502Z,37.10
2022-09-23T07:47:40.386Z,37.10
2022-09-23T07:50:17.828Z,36.60
2022-09-23T07:52:53.337Z,35.40
2022-09-23T07:55:21.204Z,35.10
2022-09-23T07:57:51.869Z,35.80
2022-09-23T08:00:29.264Z,35.30
2022-09-23T08:03:29.352Z,35.90
2022-09-23T08:06:11.999Z,35.20
2022-09-23T08:08:44.148Z,35.20
2022-09-23T08:11:54.317Z,35.60
2022-09-23T08:14:32.039Z,35.60
2022-09-23T08:17:08.676Z,34.20
2022-09-23T08:19:40.854Z,33.80
2022-09-23T08:22:21.507Z,33.60
2022-09-23T08:25:02.188Z,33.90
2022-09-23T08:27:41.971Z,33.80
2022-09-23T08:30:13.555Z,33.50
2022-09-23T08:32:45.774Z,33.70
2022-09-23T08:35:47.133Z,33.90
2022-09-23T08:38:20.519Z,33.90
2022-09-23T08:40:53.674Z,34.20
2022-09-23T08:43:31.790Z,34.10
2022-09-23T08:46:08.076Z,34.20
2022-09-23T08:49:03.769Z,34.10
2022-09-23T08:51:54.959Z,33.30
2022-09-23T08:54:24.179Z,33.50
2022-09-23T08:57:04.840Z,33.20
2022-09-23T08:59:50.161Z,33.40
2022-09-23T09:02:48.368Z,33.90
2022-09-23T09:05:30.541Z,33.70
2022-09-23T09:08:08.106Z,33.60
2022-09-23T09:10:57.088Z,33.50
2022-09-23T09:13:49.976Z,34.20
2022-09-23T09:16:59.904Z,33.90
2022-09-23T09:20:05.804Z,34.50
2022-09-23T09:24:13.749Z,34.60
2022-09-23T09:27:16.737Z,35.20
2022-09-23T09:30:15.345Z,35.10
2022-09-23T09:33:02.161Z,35.70
2022-09-23T09:36:21.092Z,36.60
2022-09-23T09:38:51.541Z,36.70
2022-09-23T09:41:23.788Z,37.40
2022-09-23T09:44:06.822Z,37.10
2022-09-23T09:46:59.457Z,37.60
2022-09-23T09:49:41.451Z,37.50
2022-09-23T09:52:39.496Z,36.80
2022-09-23T09:55:16.075Z,36.20
2022-09-23T09:58:02.089Z,36.30
2022-09-23T10:00:50.454Z,36.10
2022-09-23T10:03:32.865Z,36.80
2022-09-23T10:06:01.105Z,37.30
2022-09-23T10:08:37.566Z,37.50
2022-09-23T10:11:26.635Z,37.70
2022-09-23T10:14:21.091Z,37.40
2022-09-23T10:17:10.475Z,37.50
2022-09-23T10:19:50.775Z,37.80
2022-09-23T10:22:30.490Z,38.10
2022-09-23T10:25:07.583Z,38.30
2022-09-23T10:27:55.610Z,38.20
2022-09-23T10:30:29.518Z,38.00
2022-09-23T10:33:03.825Z,38.20
2022-09-23T10:35:35.545Z,39.10
2022-09-23T10:38:05.951Z,39.70
2022-09-23T10:40:58.440Z,40.60
2022-09-23T10:43:58.482Z,41.50
2022-09-23T10:46:41.065Z,42.20
2022-09-23T10:49:57.579Z,42.50
2022-09-23T10:52:51.383Z,42.90
2022-09-23T10:55:27.279Z,43.00
2022-09-23T10:58:18.616Z,41.80
2022-09-23T11:01:37.408Z,43.10
2022-09-23T11:04:28.566Z,44.00
2022-09-23T11:10:23.320Z,45.90
2022-09-23T11:13:13.478Z,46.40
2022-09-23T11:16:45.029Z,47.20
2022-09-23T11:20:28.609Z,47.80
2022-09-23T11:23:43.079Z,47.70
2022-09-23T11:26:39.525Z,47.80
2022-09-23T11:29:21.200Z,48.30
2022-09-23T11:32:06.381Z,47.00
2022-09-23T11:34:52.723Z,47.90
2022-09-23T11:37:28.599Z,48.30
2022-09-23T11:40:17.103Z,48.70
2022-09-23T11:43:41.174Z,48.70
2022-09-23T11:46:27.410Z,48.60
2022-09-23T11:49:08.045Z,48.50
2022-09-23T11:51:57.706Z,48.10
2022-09-23T11:54:35.590Z,47.50
2022-09-23T11:57:14.049Z,47.60
2022-09-23T11:59:57.797Z,46.90
2022-09-23T12:03:12.253Z,46.70
2022-09-23T12:05:49.396Z,44.70
2022-09-23T12:08:39.463Z,45.10
2022-09-23T12:11:36.534Z,44.90
2022-09-23T12:14:19.024Z,44.90
2022-09-23T12:17:18.349Z,45.30
2022-09-23T12:19:52.081Z,45.20
2022-09-23T12:22:43.030Z,47.80
2022-09-23T12:25:36.210Z,46.20
2022-09-23T12:28:12.304Z,45.70
2022-09-23T12:30:44.180Z,45.70
2022-09-23T12:33:23.817Z,45.20
2022-09-23T12:36:11.350Z,45.70
2022-09-23T12:39:01.420Z,46.50
2022-09-23T12:41:41.382Z,46.10
2022-09-23T12:44:28.072Z,46.20
2022-09-23T12:47:29.726Z,46.20
2022-09-23T12:50:26.100Z,46.10
2022-09-23T12:52:56.102Z,46.10
2022-09-23T12:55:56.250Z,46.40
2022-09-23T13:02:37.668Z,45.80
2022-09-23T13:05:51.374Z,45.50
2022-09-23T13:08:57.889Z,45.50
2022-09-23T13:11:42.161Z,46.20
2022-09-23T13:14:38.869Z,46.20
2022-09-23T13:17:06.820Z,45.60
2022-09-23T13:19:38.599Z,46.00
2022-09-23T13:22:11.490Z,46.20
2022-09-23T13:24:47.246Z,45.90
2022-09-23T13:27:41.175Z,46.10
2022-09-23T13:30:15.699Z,46.40
2022-09-23T13:33:04.654Z,46.80
2022-09-23T13:35:38.761Z,46.30
2022-09-23T13:38:23.982Z,45.30
2022-09-23T13:40:52.207Z,46.00
2022-09-23T13:43:32.490Z,46.20
2022-09-23T13:46:01.440Z,45.70
2022-09-23T13:48:31.418Z,45.90
2022-09-23T13:51:19.382Z,47.20
2022-09-23T13:53:55.625Z,47.70
2022-09-23T13:56:38.641Z,48.20
2022-09-23T13:59:29.604Z,48.60
2022-09-23T14:02:31.763Z,48.90
2022-09-23T14:05:38.360Z,49.20
2022-09-23T14:08:23.557Z,48.20
2022-09-23T14:11:07.534Z,49.40
2022-09-23T14:13:55.721Z,50.10
2022-09-23T14:16:40.821Z,50.40
2022-09-23T14:19:24.801Z,51.40
2022-09-23T14:21:57.347Z,51.70
2022-09-23T14:24:34.223Z,52.30
2022-09-23T14:27:18.408Z,52.70
2022-09-23T14:29:48.375Z,52.70
2022-09-23T14:32:29.244Z,52.80
2022-09-23T14:35:11.334Z,53.10
2022-09-23T14:38:00.475Z,53.50
2022-09-23T14:40:52.277Z,53.20
2022-09-23T14:43:37.764Z,53.10
2022-09-23T14:46:21.956Z,53.30
2022-09-23T14:49:11.775Z,53.70
2022-09-23T14:51:53.161Z,52.80
2022-09-23T14:54:50.225Z,52.70
2022-09-23T14:57:25.391Z,52.90
2022-09-23T15:00:24.366Z,53.70
2022-09-23T15:03:05.364Z,54.60
2022-09-23T15:05:51.670Z,55.10
2022-09-23T15:08:24.658Z,55.60
2022-09-23T15:10:55.649Z,56.10
2022-09-23T15:13:49.979Z,56.70
2022-09-23T15:16:39.102Z,56.60
2022-09-23T15:19:15.369Z,56.90
2022-09-23T15:21:46.334Z,57.40
2022-09-23T15:24:46.205Z,57.50
2022-09-23T15:27:33.183Z,57.80
2022-09-23T15:30:22.192Z,57.80
2022-09-23T15:32:51.643Z,57.80
2022-09-23T15:35:22.523Z,57.90
2022-09-23T15:38:01.766Z,58.20
2022-09-23T15:40:37.725Z,58.00
2022-09-23T15:43:21.652Z,58.20
2022-09-23T15:46:07.237Z,58.60
2022-09-23T15:48:54.190Z,58.90
2022-09-23T15:51:35.693Z,58.90
2022-09-23T15:54:04.231Z,58.90
2022-09-23T15:56:32.308Z,59.40
2022-09-23T15:59:06.730Z,59.60
2022-09-23T16:01:44.440Z,60.00
2022-09-23T16:04:14.473Z,60.50
2022-09-23T16:06:44.911Z,60.60
2022-09-23T16:09:17.427Z,61.30
2022-09-23T16:11:52.500Z,61.30
2022-09-23T16:14:23.787Z,61.80
2022-09-23T16:16:58.123Z,62.00
2022-09-23T16:23:14.745Z,62.70
2022-09-23T16:25:42.697Z,62.90
2022-09-23T16:28:14.805Z,63.30
2022-09-23T16:30:42.357Z,63.60
2022-09-23T16:33:12.855Z,63.70
2022-09-23T16:35:42.680Z,63.90
2022-09-23T16:38:10.649Z,64.10
2022-09-23T16:40:47.738Z,64.50
2022-09-23T16:43:24.532Z,64.50
2022-09-23T16:45:58.280Z,64.80
2022-09-23T16:48:37.683Z,64.50
2022-09-23T16:51:17.873Z,64.90
2022-09-23T16:53:54.752Z,64.90
2022-09-23T16:56:28.254Z,64.90
2022-09-23T16:59:02.306Z,64.60
2022-09-23T17:01:51.528Z,65.00
2022-09-23T17:04:20.846Z,65.30
2022-09-23T17:06:51.088Z,65.60
2022-09-23T17:09:21.175Z,65.50
2022-09-23T17:12:16.044Z,65.70
2022-09-23T17:14:48.382Z,65.80
2022-09-23T17:17:22.546Z,66.10
2022-09-23T17:19:59.476Z,66.40
2022-09-23T17:22:33.646Z,66.60
2022-09-23T17:25:03.977Z,66.80
2022-09-23T17:27:37.517Z,66.80
2022-09-23T17:30:05.925Z,67.30
2022-09-23T17:32:38.779Z,67.10
2022-09-23T17:35:06.625Z,67.70
2022-09-23T17:37:37.333Z,68.10
2022-09-23T17:40:08.274Z,68.00
2022-09-23T17:42:41.490Z,68.40
2022-09-23T17:45:20.592Z,68.90
2022-09-23T17:47:54.972Z,68.60
2022-09-23T17:50:25.133Z,68.60
2022-09-23T17:52:53.066Z,69.10
2022-09-23T17:55:23.011Z,68.80
2022-09-23T17:57:54.681Z,68.70
2022-09-23T18:00:23.667Z,68.60
2022-09-23T18:02:54.357Z,68.40
2022-09-23T18:05:25.196Z,68.50
2022-09-23T18:07:52.738Z,68.60
2022-09-23T18:10:23.347Z,68.40
2022-09-23T18:12:51.524Z,68.30
2022-09-23T18:15:21.995Z,68.30
2022-09-23T18:17:53.310Z,68.20
2022-09-23T18:20:27.217Z,68.00
2022-09-23T18:22:57.865Z,68.20
2022-09-23T18:25:51.957Z,68.10
2022-09-23T18:28:20.366Z,68.00
2022-09-23T18:31:06.198Z,68.00
2022-09-23T18:33:34.000Z,68.10
2022-09-23T18:36:11.073Z,68.10
2022-09-23T18:38:48.674Z,68.30
2022-09-23T18:44:24.713Z,68.20
2022-09-23T18:47:38.153Z,68.10
2022-09-23T18:51:06.999Z,68.10
2022-09-23T18:53:36.889Z,68.00
2022-09-23T18:56:11.434Z,68.00
2022-09-23T18:58:46.596Z,68.10
2022-09-23T19:01:18.095Z,68.00
2022-09-23T19:04:03.902Z,68.30
2022-09-23T19:06:35.152Z,68.50
2022-09-23T19:09:16.491Z,68.50
2022-09-23T19:12:31.081Z,68.80
2022-09-23T19:15:13.650Z,68.90
2022-09-23T19:17:54.694Z,68.80
2022-09-23T19:20:25.851Z,69.10
2022-09-23T19:23:00.811Z,69.50
2022-09-23T19:28:32.156Z,69.20
2022-09-23T19:31:22.906Z,69.50
2022-09-23T19:34:34.484Z,69.70
2022-09-23T19:40:18.063Z,70.00
2022-09-23T19:43:29.954Z,69.90
2022-09-23T19:46:17.659Z,70.10
2022-09-23T19:49:11.661Z,70.20
2022-09-23T19:51:47.717Z,70.20
2022-09-23T19:54:51.305Z,70.30
2022-09-23T20:00:35.811Z,70.80
2022-09-23T20:03:14.525Z,71.00
2022-09-23T20:06:00.539Z,71.10
2022-09-23T20:11:45.678Z,71.30
2022-09-23T20:14:28.094Z,71.60
2022-09-23T20:17:05.186Z,71.70
2022-09-23T20:19:36.059Z,72.10
2022-09-23T20:22:30.801Z,72.30
2022-09-23T20:25:05.375Z,72.50
2022-09-23T20:27:36.234Z,72.80
2022-09-23T20:30:14.132Z,73.00
2022-09-23T20:33:03.635Z,73.00
2022-09-23T20:38:25.939Z,73.30
2022-09-23T20:40:59.800Z,73.40
2022-09-23T20:43:36.745Z,73.30
2022-09-23T20:46:24.101Z,73.20
2022-09-23T20:48:53.670Z,73.10
2022-09-23T20:51:33.589Z,72.80
2022-09-23T20:54:01.490Z,72.80
2022-09-23T20:56:34.436Z,72.80
2022-09-23T20:59:37.116Z,72.70
2022-09-23T21:02:22.782Z,72.70
2022-09-23T21:04:54.283Z,72.60
2022-09-23T21:07:22.620Z,72.70
2022-09-23T21:09:50.664Z,72.90
2022-09-23T21:12:22.653Z,73.00
2022-09-23T21:14:59.069Z,72.90
2022-09-23T21:17:29.789Z,73.00
2022-09-23T21:20:05.756Z,73.20
2022-09-23T21:22:34.080Z,73.20
2022-09-23T21:27:58.792Z,73.50
2022-09-23T21:31:11.346Z,73.90
2022-09-23T21:34:02.336Z,73.90
2022-09-23T21:40:00.703Z,74.60
2022-09-23T21:42:32.640Z,74.60
2022-09-23T21:45:04.587Z,74.60
2022-09-23T21:47:32.932Z,74.80
2022-09-23T21:50:10.651Z,74.90
2022-09-23T21:52:46.969Z,75.00
2022-09-23T21:55:24.699Z,75.00
2022-09-23T21:57:57.095Z,75.00
2022-09-23T22:00:50.004Z,75.40
2022-09-23T22:03:21.485Z,75.40
2022-09-23T22:06:12.339Z,75.40
2022-09-23T22:08:44.099Z,75.70
2022-09-23T22:11:34.792Z,76.30
2022-09-23T22:14:10.235Z,76.50
2022-09-23T22:16:45.678Z,76.60
2022-09-23T22:19:25.825Z,76.80
2022-09-23T22:21:54.199Z,76.70
2022-09-23T22:24:24.922Z,76.80
2022-09-23T22:26:54.050Z,76.80
2022-09-23T22:29:43.007Z,76.60
2022-09-23T22:32:37.017Z,76.40
2022-09-23T22:35:07.281Z,76.60
2022-09-23T22:37:37.249Z,76.50
2022-09-23T22:40:14.437Z,76.60
2022-09-23T22:42:44.326Z,76.00
2022-09-23T22:45:14.730Z,75.80
2022-09-23T22:47:52.745Z,75.80
2022-09-23T22:50:21.830Z,75.60
2022-09-23T22:52:49.897Z,75.50
2022-09-23T22:55:18.530Z,75.50
2022-09-23T22:57:52.195Z,75.40
2022-09-23T23:00:23.071Z,75.40
2022-09-23T23:02:50.886Z,75.40
2022-09-23T23:05:23.756Z,75.50
2022-09-23T23:07:54.296Z,75.40
2022-09-23T23:10:48.476Z,75.60
2022-09-23T23:13:20.077Z,75.50
2022-09-23T23:15:51.326Z,75.50
2022-09-23T23:18:18.566Z,75.50
2022-09-23T23:20:50.606Z,75.50
2022-09-23T23:23:21.932Z,75.50
2022-09-23T23:25:51.495Z,75.60
2022-09-23T23:28:19.131Z,75.70
2022-09-23T23:30:50.021Z,75.90
2022-09-23T23:33:27.816Z,75.60
2022-09-23T23:35:55.645Z,75.60
2022-09-23T23:38:27.830Z,75.60
2022-09-23T23:40:58.817Z,75.50
2022-09-23T23:43:28.828Z,75.60
2022-09-23T23:45:59.203Z,75.60
2022-09-23T23:48:37.305Z,75.60
2022-09-23T23:51:13.091Z,75.80
2022-09-23T23:53:41.844Z,75.80
2022-09-23T23:56:15.210Z,75.80
2022-09-23T23:58:43.155Z,76.20
